Time;durP1;ratioP1;P1;durP2;ratioP2;P2;SDS_P1;SDS_P2;PMS_P1;PMS_P2;Temp;Humidity;BMP_temperature;BMP_pressure;BME280_temperature;BME280_humidity;BME280_pressure;Samples;Min_cycle;Max_cycle;Signal;HPM_P1;HPM_P2
2023/10/14 00:00:28;;;;;;;;;31.33;28.33;;;;;13.39;100.00;99541.38;6282336;20;3613798;-52
2023/10/14 00:03:13;;;;;;;;;33.50;31.00;;;;;13.29;100.00;99541.22;6287466;20;3475266;-46
2023/10/14 00:05:44;;;;;;;;;39.33;33.00;;;;;13.31;100.00;99533.88;6314545;20;3614868;-46
2023/10/14 00:08:13;;;;;;;;;34.67;30.00;;;;;13.20;100.00;99525.72;6287157;20;3607638;-46
2023/10/14 00:10:43;;;;;;;;;33.67;31.00;;;;;13.30;100.00;99531.31;6283419;20;2846256;-46
2023/10/14 00:13:16;;;;;;;;;32.33;31.33;;;;;13.13;100.00;99521.75;6315182;20;3583715;-46
2023/10/14 00:15:45;;;;;;;;;42.50;34.50;;;;;13.03;100.00;99526.09;6282044;20;2857945;-46
2023/10/14 00:18:17;;;;;;;;;39.33;32.00;;;;;12.97;100.00;99516.63;6282877;20;3600253;-46
2023/10/14 00:20:45;;;;;;;;;36.33;32.00;;;;;12.73;100.00;99517.47;6316196;20;3602311;-46
2023/10/14 00:23:14;;;;;;;;;34.00;32.00;;;;;12.92;100.00;99522.34;6282885;20;2842087;-46
2023/10/14 00:25:44;;;;;;;;;40.00;33.67;;;;;12.76;100.00;99519.09;6282415;20;3606538;-46
2023/10/14 00:28:13;;;;;;;;;38.33;34.00;;;;;12.79;100.00;99515.31;6317683;20;3610733;-46
2023/10/14 00:30:42;;;;;;;;;33.67;30.67;;;;;12.75;100.00;99509.28;6286927;20;3575317;-46
2023/10/14 00:33:12;;;;;;;;;36.50;33.00;;;;;12.59;100.00;99497.94;6281621;20;2848192;-48
2023/10/14 00:35:42;;;;;;;;;35.67;32.00;;;;;12.69;100.00;99507.03;6282126;20;3597161;-47
2023/10/14 00:38:14;;;;;;;;;39.67;34.00;;;;;12.72;100.00;99504.13;6320791;20;3607607;-47
2023/10/14 00:40:46;;;;;;;;;37.67;32.33;;;;;12.58;100.00;99501.56;6281942;20;3612906;-46
2023/10/14 00:43:14;;;;;;;;;35.67;32.00;;;;;12.28;100.00;99500.97;6285970;20;3596086;-46
2023/10/14 00:45:44;;;;;;;;;37.67;31.33;;;;;12.78;100.00;99495.59;6279825;20;3594146;-46
2023/10/14 00:48:19;;;;;;;;;39.00;31.67;;;;;12.90;100.00;99496.50;6317840;20;3593079;-46
2023/10/14 00:50:50;;;;;;;;;41.67;34.00;;;;;12.93;100.00;99507.94;6282835;20;3608603;-46
2023/10/14 00:53:19;;;;;;;;;35.33;31.67;;;;;12.77;100.00;99501.06;6284748;20;3574209;-48
2023/10/14 00:58:28;;;;;;;;;37.00;30.00;;;;;12.44;100.00;99489.97;6279905;20;2860918;-48
2023/10/14 01:00:59;;;;;;;;;37.67;30.67;;;;;12.72;100.00;99483.44;6315515;20;3600273;-46
2023/10/14 01:03:36;;;;;;;;;35.33;30.00;;;;;12.57;100.00;99484.56;6284812;20;3598181;-46
2023/10/14 01:08:52;;;;;;;;;33.67;27.67;;;;;12.41;100.00;99474.03;6281439;20;3612753;-48
2023/10/14 01:11:24;;;;;;;;;42.33;32.33;;;;;12.35;100.00;99463.72;6313555;20;3590890;-46
2023/10/14 01:14:04;;;;;;;;;33.00;31.00;;;;;12.36;100.00;99465.44;6280495;20;3590914;-47
2023/10/14 01:16:37;;;;;;;;;34.67;32.00;;;;;12.28;100.00;99463.28;6281012;20;3579528;-45
2023/10/14 01:19:11;;;;;;;;;36.33;30.00;;;;;12.45;100.00;99456.72;6278265;20;2845252;-45
2023/10/14 01:21:41;;;;;;;;;28.33;27.67;;;;;12.84;100.00;99452.00;6314797;20;3590893;-43
2023/10/14 01:24:15;;;;;;;;;31.67;30.00;;;;;12.93;100.00;99451.34;6280863;20;3583042;-43
2023/10/14 01:26:53;;;;;;;;;30.00;28.00;;;;;12.28;100.00;99446.28;6281473;20;3606538;-44
2023/10/14 01:29:30;;;;;;;;;35.00;30.00;;;;;12.32;100.00;99447.78;6286058;20;3609744;-43
2023/10/14 01:37:58;;;;;;;;;33.67;31.00;;;;;12.02;100.00;99435.56;6283144;20;3590933;-44
2023/10/14 01:40:36;;;;;;;;;45.33;39.00;;;;;11.78;100.00;99435.44;6282044;20;2854510;-44
2023/10/14 01:43:06;;;;;;;;;60.00;46.67;;;;;11.73;100.00;99431.38;6315179;20;3611758;-45
2023/10/14 01:45:50;;;;;;;;;28.00;25.00;;;;;12.34;100.00;99429.69;6282985;20;3586808;-46
2023/10/14 01:48:21;;;;;;;;;28.67;26.33;;;;;12.43;100.00;99420.94;6283580;20;3596119;-46
2023/10/14 01:50:57;;;;;;;;;85.67;76.67;;;;;11.80;100.00;99413.84;6279183;20;3660712;-47
2023/10/14 01:53:32;;;;;;;;;74.50;66.00;;;;;11.46;100.00;99413.50;6280803;20;3645146;-46
2023/10/14 01:56:06;;;;;;;;;187.75;175.25;;;;;11.41;100.00;99418.34;6309506;20;4462804;-43
2023/10/14 01:58:36;;;;;;;;;33.67;29.67;;;;;11.25;100.00;99410.47;6276101;20;2843079;-44
2023/10/14 02:01:15;;;;;;;;;31.67;26.33;;;;;10.99;100.00;99412.25;6313187;20;3609671;-45
2023/10/14 02:03:47;;;;;;;;;31.33;30.33;;;;;11.20;100.00;99409.94;6280189;20;3571115;-49
2023/10/14 02:06:30;;;;;;;;;33.33;27.67;;;;;11.28;100.00;99398.66;6282004;20;3605854;-44
2023/10/14 02:09:00;;;;;;;;;29.67;28.00;;;;;11.26;100.00;99397.91;6280072;20;2847285;-44
2023/10/14 02:11:35;;;;;;;;;37.00;31.33;;;;;10.96;100.00;99390.97;6314584;20;3606487;-43
2023/10/14 02:14:07;;;;;;;;;39.67;30.00;;;;;10.96;100.00;99388.28;6278806;20;3608615;-43
2023/10/14 02:16:41;;;;;;;;;47.67;37.67;;;;;11.11;100.00;99387.25;6310422;20;3602427;-44
2023/10/14 02:19:36;;;;;;;;;36.50;32.00;;;;;11.19;100.00;99381.34;6310338;20;2854413;-47
2023/10/14 02:22:09;;;;;;;;;35.00;32.00;;;;;10.74;100.00;99376.31;6280038;20;2851326;-45
2023/10/14 02:24:40;;;;;;;;;35.00;30.00;;;;;10.94;100.00;99377.66;6280621;20;3590853;-44
2023/10/14 02:27:11;;;;;;;;;38.67;32.00;;;;;11.29;100.00;99376.19;6308896;20;3598919;-43
2023/10/14 02:29:46;;;;;;;;;34.50;32.00;;;;;11.41;100.00;99370.81;6279062;20;2851404;-43
2023/10/14 02:32:15;;;;;;;;;36.00;32.00;;;;;11.09;100.00;99365.00;6280411;20;2859718;-45
2023/10/14 02:34:45;;;;;;;;;38.00;32.33;;;;;11.27;100.00;99362.88;6307174;20;3599261;-45
2023/10/14 02:37:14;;;;;;;;;31.67;29.67;;;;;11.16;100.00;99360.94;6312749;20;3573227;-43
2023/10/14 02:39:44;;;;;;;;;61.33;48.67;;;;;11.65;100.00;99370.91;6277265;20;3630591;-43
2023/10/14 02:42:15;;;;;;;;;63.33;47.33;;;;;11.35;100.00;99359.66;6311183;20;3631746;-43
2023/10/14 02:44:52;;;;;;;;;45.50;32.50;;;;;11.13;100.00;99355.75;6313307;20;3637925;-43
2023/10/14 02:47:21;;;;;;;;;37.00;32.67;;;;;11.04;100.00;99356.41;6311883;20;3606623;-46
2023/10/14 02:50:05;;;;;;;;;33.33;30.67;;;;;10.94;100.00;99357.97;6280586;20;3596155;-43
2023/10/14 02:52:38;;;;;;;;;30.00;27.67;;;;;10.75;100.00;99367.28;6276002;20;3592068;-47
2023/10/14 02:55:20;;;;;;;;;31.33;30.67;;;;;10.66;100.00;99367.91;6310911;20;3619150;-47
2023/10/14 02:57:52;;;;;;;;;32.13;29.75;;;;;10.73;100.00;99369.22;6299510;20;3601317;-46
2023/10/14 03:00:31;;;;;;;;;35.33;30.33;;;;;10.51;100.00;99360.91;6278329;20;3619010;-44
2023/10/14 03:03:03;;;;;;;;;30.67;29.00;;;;;10.55;100.00;99371.31;6310495;20;3603410;-43
2023/10/14 03:05:33;;;;;;;;;28.67;26.00;;;;;10.68;100.00;99360.59;6317335;20;3602394;-44
2023/10/14 03:08:09;;;;;;;;;31.67;26.67;;;;;10.73;100.00;99353.09;6284610;20;3604493;-45
2023/10/14 03:10:55;;;;;;;;;31.25;27.00;;;;;10.87;100.00;99359.34;6318366;20;3599206;-46
2023/10/14 03:13:24;;;;;;;;;31.33;26.00;;;;;10.95;100.00;99355.22;6318752;20;3608636;-48
2023/10/14 03:15:54;;;;;;;;;24.00;24.00;;;;;10.85;100.00;99361.28;6282553;20;2845144;-46
2023/10/14 03:18:30;;;;;;;;;27.00;24.33;;;;;10.72;100.00;99362.13;6317164;20;3592004;-46
2023/10/14 03:21:27;;;;;;;;;37.33;31.67;;;;;11.11;100.00;99365.75;6286582;20;3604455;-47
2023/10/14 03:23:58;;;;;;;;;112.00;106.75;;;;;10.89;100.00;99360.13;6314307;20;3692100;-46
2023/10/14 03:26:32;;;;;;;;;33.33;30.67;;;;;10.44;100.00;99351.53;6285743;20;3588809;-46
2023/10/14 03:29:12;;;;;;;;;35.67;30.00;;;;;10.14;100.00;99352.56;6282941;20;2845192;-45
2023/10/14 03:31:44;;;;;;;;;35.00;30.00;;;;;10.40;100.00;99352.66;6316058;20;3577375;-48
2023/10/14 03:34:17;;;;;;;;;37.33;32.33;;;;;10.13;100.00;99345.44;6282038;20;2851461;-46
2023/10/14 03:36:50;;;;;;;;;34.33;31.33;;;;;9.95;100.00;99352.00;6316384;20;3596131;-47
2023/10/14 03:39:37;;;;;;;;;31.67;30.00;;;;;10.02;100.00;99345.28;6280240;20;3607539;-46
2023/10/14 03:42:15;;;;;;;;;38.33;33.67;;;;;10.48;100.00;99347.69;6316959;20;3604423;-47
2023/10/14 03:44:47;;;;;;;;;36.00;31.00;;;;;10.41;100.00;99341.00;6283290;20;2858766;-46
2023/10/14 03:47:16;;;;;;;;;43.33;36.00;;;;;10.17;100.00;99340.75;6316786;20;3581683;-46
2023/10/14 03:49:55;;;;;;;;;41.00;34.00;;;;;10.59;100.00;99333.53;6283270;20;3619128;-47
2023/10/14 03:52:26;;;;;;;;;41.33;34.00;;;;;10.27;100.00;99326.66;6315511;20;3592997;-47
2023/10/14 03:54:55;;;;;;;;;42.00;34.00;;;;;10.68;100.00;99328.38;6280630;20;2845098;-46
2023/10/14 03:57:33;;;;;;;;;33.00;30.00;;;;;10.55;100.00;99322.13;6279860;20;2850311;-46
2023/10/14 04:00:12;;;;;;;;;34.33;32.00;;;;;10.70;100.00;99320.25;6282481;20;2858737;-45
2023/10/14 04:02:44;;;;;;;;;38.33;33.00;;;;;10.80;100.00;99315.13;6315175;20;3606542;-46
2023/10/14 04:05:13;;;;;;;;;45.50;36.50;;;;;10.90;100.00;99314.38;6282399;20;2850397;-46
2023/10/14 04:07:43;;;;;;;;;41.00;35.00;;;;;10.92;100.00;99309.72;6284210;20;2851319;-46
2023/10/14 04:10:14;;;;;;;;;34.67;31.00;;;;;10.79;100.00;99313.38;6315199;20;2867051;-46
2023/10/14 04:12:53;;;;;;;;;36.00;30.00;;;;;10.64;100.00;99309.94;6318098;20;3596127;-46
2023/10/14 04:17:58;;;;;;;;;36.00;30.67;;;;;10.48;100.00;99312.78;6318000;20;3597163;-46
2023/10/14 04:20:33;;;;;;;;;39.67;32.67;;;;;10.54;100.00;99310.53;6281360;20;3612809;-46
2023/10/14 04:23:18;;;;;;;;;38.33;33.33;;;;;10.61;100.00;99307.44;6316545;20;3574210;-47
2023/10/14 04:26:01;;;;;;;;;46.00;35.00;;;;;11.13;100.00;99310.06;6280525;20;2868081;-46
2023/10/14 04:28:31;;;;;;;;;49.67;39.00;;;;;10.45;100.00;99304.91;6282844;20;3619014;-46
2023/10/14 04:31:06;;;;;;;;;45.00;38.00;;;;;10.13;100.00;99304.34;6315492;20;2874605;-46
2023/10/14 04:33:45;;;;;;;;;40.33;33.33;;;;;9.87;100.00;99296.19;6281211;20;3608722;-46
2023/10/14 04:38:44;;;;;;;;;37.00;32.67;;;;;9.67;100.00;99297.47;6281544;20;2854480;-45
2023/10/14 04:41:23;;;;;;;;;40.00;33.33;;;;;9.78;100.00;99288.75;6318734;20;3596125;-47
2023/10/14 04:46:45;;;;;;;;;40.67;34.33;;;;;9.85;100.00;99296.28;6314357;20;3584625;-46
2023/10/14 04:49:16;;;;;;;;;42.33;35.67;;;;;9.95;100.00;99293.84;6279335;20;2865997;-45
2023/10/14 04:51:45;;;;;;;;;47.67;37.00;;;;;10.03;100.00;99288.88;6316270;20;3607581;-48
2023/10/14 04:54:19;;;;;;;;;37.67;32.00;;;;;9.66;100.00;99293.06;6280499;20;2855593;-46
2023/10/14 04:56:50;;;;;;;;;51.00;40.00;;;;;9.51;100.00;99292.25;6310527;20;2858098;-46
2023/10/14 04:59:24;;;;;;;;;51.00;42.00;;;;;9.13;100.00;99289.28;6311907;20;3600766;-47
2023/10/14 05:01:55;;;;;;;;;36.00;33.67;;;;;9.26;100.00;99292.91;6313519;20;3578418;-47
2023/10/14 05:04:30;;;;;;;;;42.67;34.00;;;;;10.27;100.00;99299.84;6280638;20;2846163;-45
2023/10/14 05:07:04;;;;;;;;;36.50;32.50;;;;;9.70;100.00;99305.31;6312688;20;2851277;-46
2023/10/14 05:09:39;;;;;;;;;39.33;34.00;;;;;10.16;100.00;99301.47;6284773;20;3579414;-46
2023/10/14 05:12:14;;;;;;;;;33.33;32.00;;;;;9.84;100.00;99305.28;6282238;20;3606584;-46
2023/10/14 05:14:42;;;;;;;;;38.67;33.33;;;;;9.21;100.00;99300.38;6315095;20;3602415;-47
2023/10/14 05:19:43;;;;;;;;;32.00;29.33;;;;;9.22;100.00;99299.44;6314010;20;3599284;-47
2023/10/14 05:22:23;;;;;;;;;32.33;29.00;;;;;9.61;100.00;99301.41;6281658;20;2860869;-46
2023/10/14 05:25:03;;;;;;;;;34.00;31.00;;;;;9.20;100.00;99304.88;6312387;20;2850474;-40
2023/10/14 05:27:55;;;;;;;;;42.33;33.33;;;;;9.21;100.00;99305.72;6317086;20;3595085;-40
2023/10/14 05:30:33;;;;;;;;;38.33;32.67;;;;;9.79;100.00;99312.75;6279560;20;2858740;-40
2023/10/14 05:33:06;;;;;;;;;40.00;33.33;;;;;10.12;100.00;99298.13;6315452;20;3608709;-40
2023/10/14 05:35:43;;;;;;;;;38.67;33.67;;;;;10.11;100.00;99305.31;6280138;20;2861804;-40
2023/10/14 05:38:14;;;;;;;;;37.00;31.33;;;;;10.29;100.00;99308.66;6315242;20;3598239;-41
2023/10/14 05:40:43;;;;;;;;;38.00;33.50;;;;;10.62;100.00;99304.66;6281976;20;2861733;-39
2023/10/14 05:43:12;;;;;;;;;42.50;36.00;;;;;10.76;100.00;99299.19;6280888;20;2841999;-41
2023/10/14 05:45:44;;;;;;;;;53.00;40.33;;;;;11.68;100.00;99307.13;6279664;20;3625242;-41
2023/10/14 05:48:12;;;;;;;;;42.67;35.67;;;;;12.78;100.00;99306.16;6312519;20;3581506;-41
2023/10/14 05:50:43;;;;;;;;;42.50;35.00;;;;;11.76;100.00;99299.34;6280262;20;2855580;-40
2023/10/14 05:53:13;;;;;;;;;43.50;37.50;;;;;12.86;100.00;99296.50;6280252;20;2852362;-41
2023/10/14 05:55:44;;;;;;;;;45.00;36.00;;;;;15.87;89.23;99309.31;6279712;20;2848197;-41
2023/10/14 05:58:14;;;;;;;;;44.33;33.33;;;;;15.50;88.93;99311.69;6281217;20;3616970;-41
2023/10/14 06:00:43;;;;;;;;;38.00;33.00;;;;;15.74;87.64;99312.25;6310896;20;3612796;-42
2023/10/14 06:03:12;;;;;;;;;37.00;33.00;;;;;16.21;84.35;99323.38;6314831;20;3610675;-45
2023/10/14 06:05:42;;;;;;;;;46.67;39.00;;;;;16.64;82.66;99318.56;6282907;20;3596113;-44
2023/10/14 06:08:16;;;;;;;;;37.33;32.67;;;;;15.59;86.67;99319.00;6283344;20;3612758;-43
2023/10/14 06:10:46;;;;;;;;;28.33;27.00;;;;;15.89;85.43;99312.72;6285158;20;3598274;-43
2023/10/14 06:13:15;;;;;;;;;35.33;31.00;;;;;16.30;83.99;99318.97;6284151;20;3596140;-42
2023/10/14 06:15:44;;;;;;;;;28.67;26.33;;;;;16.98;78.33;99326.28;6280186;20;3594076;-43
2023/10/14 06:18:14;;;;;;;;;29.67;29.67;;;;;18.04;73.15;99325.16;6283138;20;3585749;-41
2023/10/14 06:20:45;;;;;;;;;36.33;31.67;;;;;17.88;72.95;99325.81;6283323;20;3606591;-41
2023/10/14 06:23:15;;;;;;;;;36.33;33.00;;;;;18.72;68.61;99323.81;6280687;20;3610695;-41
2023/10/14 06:25:44;;;;;;;;;30.67;30.00;;;;;18.06;70.94;99324.97;6313480;20;3581513;-41
2023/10/14 06:28:14;;;;;;;;;37.33;32.67;;;;;19.77;64.78;99336.56;6278185;20;3595049;-41
2023/10/14 06:30:43;;;;;;;;;36.00;32.00;;;;;19.66;64.69;99334.09;6314068;20;3595067;-42
2023/10/14 06:33:12;;;;;;;;;35.00;30.00;;;;;19.52;65.16;99333.69;6282431;20;3604466;-41
2023/10/14 06:35:46;;;;;;;;;49.67;41.00;;;;;18.39;69.50;99321.63;6279387;20;3599359;-40
2023/10/14 06:38:17;;;;;;;;;37.00;33.33;;;;;18.93;69.14;99320.81;6276171;20;2847274;-40
2023/10/14 06:40:53;;;;;;;;;37.33;32.67;;;;;19.48;66.37;99326.00;6319660;20;3603370;-41
2023/10/14 06:43:25;;;;;;;;;33.33;29.33;;;;;19.80;66.70;99330.84;6286982;20;3581716;-41
2023/10/14 06:45:56;;;;;;;;;30.67;28.33;;;;;19.20;67.73;99333.47;6289076;20;3583585;-42
2023/10/14 06:48:27;;;;;;;;;30.00;29.00;;;;;16.97;74.99;99330.88;6288348;20;3576309;-41
2023/10/14 06:50:56;;;;;;;;;28.33;26.00;;;;;14.53;90.60;99325.38;6287772;20;3597135;-40
2023/10/14 06:53:28;;;;;;;;;44.33;35.33;;;;;14.66;94.95;99328.78;6287728;20;3611779;-41
2023/10/14 06:56:00;;;;;;;;;32.67;30.00;;;;;15.47;92.11;99322.78;6283770;20;3596277;-41
2023/10/14 06:58:32;;;;;;;;;34.67;32.00;;;;;15.14;92.51;99316.63;6284835;20;3596121;-41
2023/10/14 07:01:03;;;;;;;;;36.33;32.00;;;;;15.48;92.78;99319.97;6288436;20;3596144;-41
2023/10/14 07:03:33;;;;;;;;;33.67;30.33;;;;;15.63;90.52;99317.72;6283772;20;3600279;-41
2023/10/14 07:06:04;;;;;;;;;53.67;45.33;;;;;15.95;91.58;99314.03;6317651;20;3608686;-41
2023/10/14 07:08:34;;;;;;;;;52.50;44.50;;;;;16.15;89.20;99315.81;6285729;20;2824458;-42
2023/10/14 07:11:06;;;;;;;;;46.00;39.00;;;;;16.51;87.77;99307.16;6283090;20;2844046;-41
2023/10/14 07:13:38;;;;;;;;;54.00;43.67;;;;;16.91;86.69;99309.75;6317623;20;3606857;-42
2023/10/14 07:16:07;;;;;;;;;40.33;34.00;;;;;15.68;94.72;99296.53;6287610;20;3599263;-41
2023/10/14 07:18:36;;;;;;;;;47.33;38.00;;;;;15.85;93.06;99303.19;6284480;20;2859742;-41
2023/10/14 07:21:12;;;;;;;;;45.00;37.00;;;;;16.66;91.43;99317.41;6319210;20;3580492;-40
2023/10/14 07:23:42;;;;;;;;;46.33;36.67;;;;;16.89;88.63;99312.59;6286023;20;3600311;-41
2023/10/14 07:26:13;;;;;;;;;42.00;36.50;;;;;16.91;89.05;99306.19;6284061;20;2836778;-42
2023/10/14 07:28:46;;;;;;;;;44.33;36.00;;;;;16.41;90.26;99308.00;6282092;20;3606703;-42
2023/10/14 07:31:15;;;;;;;;;42.00;35.00;;;;;17.20;88.69;99306.16;6320998;20;3601327;-41
2023/10/14 07:33:44;;;;;;;;;44.33;36.00;;;;;16.27;93.07;99294.84;6288380;20;3590998;-42
2023/10/14 07:36:14;;;;;;;;;56.50;43.50;;;;;17.30;89.58;99294.25;6286410;20;3626299;-42
2023/10/14 07:38:43;;;;;;;;;39.67;35.00;;;;;17.76;86.74;99297.09;6320273;20;3601310;-41
2023/10/14 07:41:14;;;;;;;;;43.33;36.33;;;;;18.14;84.83;99297.91;6287988;20;3610691;-41
2023/10/14 07:43:43;;;;;;;;;47.67;38.67;;;;;18.04;85.07;99291.72;6272720;20;3591930;-43
2023/10/14 07:46:12;;;;;;;;;46.00;36.00;;;;;17.99;84.95;99305.72;6283168;20;3594145;-42
2023/10/14 07:48:41;;;;;;;;;46.33;39.67;;;;;17.26;89.25;99298.25;6286590;20;3590972;-41
2023/10/14 07:51:10;;;;;;;;;50.00;41.67;;;;;16.98;91.46;99278.34;6285996;20;3603397;-43
2023/10/14 07:53:57;;;;;;;;;42.67;36.00;;;;;17.94;88.21;99280.88;6319862;20;3593079;-43
2023/10/14 07:56:26;;;;;;;;;49.67;39.33;;;;;18.48;85.42;99279.06;6287146;20;3599228;-41
2023/10/14 07:58:56;;;;;;;;;52.00;40.67;;;;;17.47;90.21;99283.63;6281544;20;3620033;-41
2023/10/14 08:01:26;;;;;;;;;42.00;36.00;;;;;18.98;84.72;99280.38;6284384;20;3624330;-42
2023/10/14 08:03:58;;;;;;;;;47.67;39.67;;;;;18.87;83.92;99281.50;6318062;20;3592014;-42
2023/10/14 08:06:27;;;;;;;;;46.33;37.33;;;;;19.08;82.95;99279.28;6284888;20;3605470;-40
2023/10/14 08:08:56;;;;;;;;;46.33;39.00;;;;;18.98;84.01;99270.34;6289390;20;3608586;-41
2023/10/14 08:11:25;;;;;;;;;48.33;39.00;;;;;18.41;87.19;99267.13;6289816;20;3587913;-43
2023/10/14 08:13:54;;;;;;;;;46.67;38.33;;;;;19.48;82.97;99274.25;6286695;20;3583607;-40
2023/10/14 08:16:24;;;;;;;;;46.67;38.33;;;;;19.06;84.71;99265.00;6282310;20;3604419;-40
2023/10/14 08:18:53;;;;;;;;;45.67;36.33;;;;;19.36;82.72;99270.97;6316827;20;3593006;-40
2023/10/14 08:21:23;;;;;;;;;43.67;34.33;;;;;19.90;81.25;99273.47;6285978;20;3601332;-40
2023/10/14 08:23:52;;;;;;;;;45.33;35.67;;;;;19.96;80.56;99267.38;6282823;20;3601306;-41
2023/10/14 08:26:21;;;;;;;;;39.00;35.00;;;;;20.08;79.99;99259.72;6315744;20;3606651;-41
2023/10/14 08:28:59;;;;;;;;;44.33;35.33;;;;;19.99;80.56;99258.03;6287080;20;3593137;-41
2023/10/14 08:31:32;;;;;;;;;37.00;33.67;;;;;20.30;80.59;99256.41;6287319;20;3596093;-42
2023/10/14 08:34:02;;;;;;;;;46.33;38.67;;;;;19.97;81.99;99254.59;6287251;20;3590953;-40
2023/10/14 08:36:31;;;;;;;;;48.00;38.00;;;;;20.30;80.22;99248.22;6282029;20;3599317;-40
2023/10/14 08:39:00;;;;;;;;;44.75;35.00;;;;;20.06;81.62;99248.13;6288618;20;3597107;-41
2023/10/14 08:41:33;;;;;;;;;45.33;35.00;;;;;19.63;81.29;99248.13;6317783;20;3611699;-40
2023/10/14 08:44:08;;;;;;;;;41.67;35.00;;;;;20.31;80.26;99244.47;6282463;20;3580667;-44
2023/10/14 08:46:39;;;;;;;;;41.00;35.00;;;;;20.99;77.76;99245.19;6276049;20;3595155;-41
2023/10/14 08:49:12;;;;;;;;;41.67;35.00;;;;;20.33;80.37;99247.88;6281390;20;3583739;-42
2023/10/14 08:51:44;;;;;;;;;42.00;34.00;;;;;21.23;76.28;99244.31;6282991;20;3606729;-40
2023/10/14 08:54:25;;;;;;;;;41.33;35.00;;;;;20.90;77.23;99248.94;6283709;20;3600391;-43
2023/10/14 08:56:54;;;;;;;;;42.33;35.67;;;;;21.08;76.82;99244.16;6281270;20;3584788;-41
2023/10/14 08:59:23;;;;;;;;;44.00;36.00;;;;;21.49;74.26;99246.84;6278299;20;3598232;-41
2023/10/14 09:01:56;;;;;;;;;39.33;34.33;;;;;21.59;73.85;99236.56;6276998;20;3601334;-50
2023/10/14 09:04:28;;;;;;;;;41.67;34.00;;;;;21.39;74.68;99235.25;6310816;20;3583582;-49
2023/10/14 09:07:04;;;;;;;;;43.00;36.00;;;;;21.86;73.36;99226.19;6279231;20;3583718;-48
2023/10/14 09:09:33;;;;;;;;;35.00;31.33;;;;;22.06;71.54;99232.06;6281823;20;3600295;-48
2023/10/14 09:12:11;;;;;;;;;38.75;31.50;;;;;22.03;69.41;99233.25;6287490;20;3596202;-52
2023/10/14 09:14:42;;;;;;;;;35.00;28.25;;;;;22.40;67.82;99233.59;6317038;20;3606652;-47
2023/10/14 09:17:15;;;;;;;;;30.67;29.00;;;;;22.45;68.34;99229.28;6311976;20;3570300;-47
2023/10/14 09:19:53;;;;;;;;;34.67;30.67;;;;;22.57;66.24;99229.72;6312820;20;3602385;-49
2023/10/14 09:22:28;;;;;;;;;31.50;29.25;;;;;22.92;65.83;99230.94;6283879;20;3621196;-51
2023/10/14 09:24:58;;;;;;;;;35.33;29.00;;;;;22.78;65.90;99220.81;6310769;20;3609836;-47
2023/10/14 09:27:31;;;;;;;;;28.00;27.00;;;;;22.78;65.99;99226.28;6274945;20;3599216;-47
2023/10/14 09:30:03;;;;;;;;;28.75;25.75;;;;;22.88;65.37;99224.16;6283705;20;3589911;-48
2023/10/14 09:32:35;;;;;;;;;36.67;29.33;;;;;23.00;65.49;99230.88;6312324;20;3621055;-49
2023/10/14 09:35:04;;;;;;;;;32.33;29.00;;;;;22.61;66.00;99221.97;6281840;20;3583685;-48
2023/10/14 09:37:38;;;;;;;;;26.75;25.75;;;;;23.07;63.69;99219.22;6281868;20;3595164;-47
2023/10/14 09:40:13;;;;;;;;;31.00;28.00;;;;;22.91;64.43;99214.72;6308220;20;3593106;-50
2023/10/14 09:42:44;;;;;;;;;31.33;28.33;;;;;23.46;63.15;99216.22;6309760;20;3583721;-51
2023/10/14 09:45:19;;;;;;;;;31.00;30.00;;;;;23.30;63.12;99209.03;6307606;20;3598167;-47
2023/10/14 09:47:50;;;;;;;;;25.00;22.33;;;;;23.46;63.32;99210.75;6309337;20;3579482;-49
2023/10/14 09:50:21;;;;;;;;;28.67;27.00;;;;;23.26;63.78;99202.22;6305797;20;3592032;-45
2023/10/14 09:52:52;;;;;;;;;32.33;27.33;;;;;23.65;62.33;99204.66;6306148;20;3599204;-51
2023/10/14 09:55:22;;;;;;;;;28.67;27.67;;;;;23.56;61.78;99204.94;6303718;20;3595086;-50
2023/10/14 09:57:52;;;;;;;;;24.67;22.67;;;;;23.74;61.82;99210.06;6307182;20;3570070;-49
2023/10/14 10:00:23;;;;;;;;;29.33;25.33;;;;;23.65;60.95;99206.56;6306607;20;3602401;-46
2023/10/14 10:02:53;;;;;;;;;26.67;26.67;;;;;23.65;60.73;99212.91;6282858;20;3602381;-48
2023/10/14 10:05:39;;;;;;;;;33.29;29.71;;;;;23.78;61.91;99201.28;6297728;20;3599321;-48
2023/10/14 10:09:19;;;;;;;;;26.00;25.67;;;;;23.31;61.84;99197.03;6280324;20;3590997;-49
2023/10/14 10:11:53;;;;;;;;;26.00;23.67;;;;;23.62;60.83;99190.50;6274905;20;1890939;-46
2023/10/14 10:14:26;;;;;;;;;29.67;29.00;;;;;23.49;61.27;99182.94;6311887;20;3587928;-51
2023/10/14 10:17:02;;;;;;;;;31.50;26.50;;;;;23.76;61.01;99180.59;6316292;20;3591963;-48
2023/10/14 10:20:08;;;;;;;;;26.00;26.00;;;;;23.43;61.12;99176.34;6315338;20;3600396;-49
2023/10/14 10:22:55;;;;;;;;;29.67;27.00;;;;;23.47;61.39;99181.44;6284593;20;3595072;-49
2023/10/14 10:25:52;;;;;;;;;26.00;25.00;;;;;24.21;58.77;99156.63;6278985;20;3600421;-48
2023/10/14 10:28:27;;;;;;;;;33.25;28.50;;;;;23.54;59.95;99160.44;6286103;20;3601403;-47
2023/10/14 10:31:17;;;;;;;;;26.33;26.33;;;;;23.62;61.21;99157.63;6316570;20;3596138;-47
2023/10/14 10:34:00;;;;;;;;;22.00;22.00;;;;;23.97;60.50;99160.59;6285754;20;3582963;-49
2023/10/14 10:36:33;;;;;;;;;29.75;25.00;;;;;24.16;59.06;99154.44;6284860;20;3602500;-49
2023/10/14 10:39:17;;;;;;;;;29.67;26.00;;;;;24.17;58.45;99147.94;6315196;20;3602392;-47
2023/10/14 10:41:54;;;;;;;;;30.67;27.33;;;;;23.93;58.89;99148.28;6288730;20;3588835;-47
2023/10/14 10:44:33;;;;;;;;;32.50;28.00;;;;;23.80;59.80;99132.53;6283276;20;4356585;-48
2023/10/14 10:47:09;;;;;;;;;33.00;28.25;;;;;24.17;59.23;99126.00;6315741;20;3610770;-50
2023/10/14 10:49:59;;;;;;;;;29.33;24.00;;;;;23.88;59.07;99118.69;6315567;20;3616923;-46
2023/10/14 10:52:29;;;;;;;;;28.00;25.50;;;;;24.43;57.44;99121.78;6287507;20;3600671;-46
2023/10/14 10:55:03;;;;;;;;;32.86;27.14;;;;;23.94;58.37;99117.09;6331992;20;3622173;-47
2023/10/14 10:57:34;;;;;;;;;30.00;26.00;;;;;23.82;59.31;99114.84;6281048;20;3597196;-47
2023/10/14 11:00:09;;;;;;;;;29.00;27.33;;;;;24.06;59.43;99110.88;6282134;20;3595065;-47
2023/10/14 11:02:39;;;;;;;;;31.00;23.00;;;;;24.16;57.40;99105.06;6286689;20;3606561;-47
2023/10/14 11:05:08;;;;;;;;;26.00;24.33;;;;;24.12;59.03;99109.28;6314638;20;3576514;-46
2023/10/14 11:07:38;;;;;;;;;27.33;27.00;;;;;23.73;58.66;99094.09;6285962;20;3596175;-46
2023/10/14 11:10:07;;;;;;;;;25.00;25.00;;;;;24.21;57.83;99104.50;6282650;20;3573238;-48
2023/10/14 11:12:37;;;;;;;;;27.50;26.00;;;;;24.25;58.53;99092.94;6289209;20;3594022;-49
2023/10/14 11:15:20;;;;;;;;;26.00;22.33;;;;;24.20;57.92;99098.16;6319169;20;3587923;-46
2023/10/14 11:18:01;;;;;;;;;27.25;23.00;;;;;24.25;57.92;99097.56;6286002;20;3597151;-46
2023/10/14 11:20:46;;;;;;;;;32.67;25.33;;;;;24.07;57.57;99100.78;6315453;20;3598162;-47
2023/10/14 11:23:16;;;;;;;;;23.00;23.00;;;;;24.53;57.00;99092.97;6286066;20;3575267;-50
2023/10/14 11:25:50;;;;;;;;;23.67;22.33;;;;;24.37;57.42;99090.50;6285986;20;3583783;-50
2023/10/14 11:28:26;;;;;;;;;27.00;25.00;;;;;24.41;56.04;99091.81;6287839;20;3600247;-47
2023/10/14 11:30:58;;;;;;;;;22.86;19.57;;;;;24.12;56.37;99097.44;6338248;20;3558603;-46
2023/10/14 11:33:28;;;;;;;;;26.25;25.00;;;;;24.81;55.93;99096.78;6284184;20;3600288;-52
2023/10/14 11:35:58;;;;;;;;;26.33;24.67;;;;;24.61;55.35;99097.47;6315941;20;3578369;-50
2023/10/14 11:38:27;;;;;;;;;31.00;24.75;;;;;24.62;55.08;99085.47;6286714;20;3617132;-53
2023/10/14 11:41:02;;;;;;;;;23.33;22.33;;;;;24.63;55.39;99092.63;6314643;20;3585760;-50
2023/10/14 11:43:31;;;;;;;;;21.00;21.00;;;;;24.14;56.66;99090.69;6284969;20;3565907;-50
2023/10/14 11:46:00;;;;;;;;;26.25;23.75;;;;;24.46;56.64;99096.72;6284043;20;3604511;-48
2023/10/14 11:48:33;;;;;;;;;25.71;22.14;;;;;24.14;57.40;99090.69;6334549;20;3578404;-46